createdAt,value
2022-09-12T00:01:06.915Z,5.41
2022-09-12T00:03:36.894Z,5.31
2022-09-12T00:06:10.269Z,5.27
2022-09-12T00:08:41.390Z,5.17
2022-09-12T00:11:14.238Z,5.14
2022-09-12T00:13:47.106Z,5.38
2022-09-12T00:16:24.196Z,5.26
2022-09-12T00:18:55.337Z,4.86
2022-09-12T00:21:25.524Z,4.97
2022-09-12T00:23:54.745Z,4.82
2022-09-12T00:26:25.292Z,4.90
2022-09-12T00:28:58.083Z,5.20
2022-09-12T00:31:31.523Z,4.95
2022-09-12T00:34:01.987Z,4.95
2022-09-12T00:36:36.722Z,5.09
2022-09-12T00:39:08.068Z,5.08
2022-09-12T00:41:41.278Z,5.17
2022-09-12T00:44:48.064Z,5.02
2022-09-12T00:47:25.963Z,4.95
2022-09-12T00:50:01.571Z,4.98
2022-09-12T00:52:37.789Z,4.83
2022-09-12T00:55:11.504Z,4.81
2022-09-12T00:57:47.871Z,4.89
2022-09-12T01:00:21.021Z,5.02
2022-09-12T01:02:57.948Z,5.12
2022-09-12T01:05:32.836Z,5.15
2022-09-12T01:08:05.558Z,5.19
2022-09-12T01:10:37.473Z,5.15
2022-09-12T01:13:10.319Z,5.37
2022-09-12T01:15:42.361Z,5.11
2022-09-12T01:18:20.533Z,5.09
2022-09-12T01:21:01.817Z,5.04
2022-09-12T01:24:04.616Z,5.08
2022-09-12T01:26:54.012Z,5.01
2022-09-12T01:29:47.457Z,4.75
2022-09-12T01:32:27.336Z,5.02
2022-09-12T01:35:07.906Z,5.04
2022-09-12T01:37:44.466Z,4.85
2022-09-12T01:40:23.449Z,4.76
2022-09-12T01:43:04.507Z,4.80
2022-09-12T01:45:42.738Z,4.86
2022-09-12T01:48:18.677Z,4.77
2022-09-12T01:50:55.387Z,4.86
2022-09-12T01:53:28.928Z,4.96
2022-09-12T01:56:07.032Z,4.86
2022-09-12T01:58:46.062Z,5.04
2022-09-12T02:01:32.503Z,4.92
2022-09-12T02:04:16.427Z,4.81
2022-09-12T02:07:00.033Z,4.63
2022-09-12T02:09:37.475Z,4.74
2022-09-12T02:12:16.517Z,4.64
2022-09-12T02:14:52.098Z,4.50
2022-09-12T02:17:29.108Z,4.47
2022-09-12T02:20:06.002Z,4.36
2022-09-12T02:22:42.644Z,4.37
2022-09-12T02:25:15.436Z,4.29
2022-09-12T02:27:54.545Z,4.45
2022-09-12T02:30:27.121Z,4.55
2022-09-12T02:33:05.407Z,4.60
2022-09-12T02:35:48.799Z,4.53
2022-09-12T02:38:31.323Z,4.75
2022-09-12T02:41:05.876Z,4.49
2022-09-12T02:43:47.315Z,4.22
2022-09-12T02:46:27.127Z,4.27
2022-09-12T02:48:59.004Z,4.23
2022-09-12T02:54:58.361Z,4.53
2022-09-12T02:57:26.635Z,4.68
2022-09-12T03:00:02.165Z,4.74
2022-09-12T03:02:41.011Z,4.88
2022-09-12T03:05:27.807Z,5.04
2022-09-12T03:08:22.717Z,4.90
2022-09-12T03:11:14.831Z,5.02
2022-09-12T03:13:57.154Z,4.83
2022-09-12T03:16:37.262Z,4.89
2022-09-12T03:19:13.164Z,5.13
2022-09-12T03:21:56.215Z,5.13
2022-09-12T03:24:33.043Z,5.25
2022-09-12T03:27:13.301Z,5.31
2022-09-12T03:29:43.196Z,5.42
2022-09-12T03:32:13.218Z,5.57
2022-09-12T03:34:42.994Z,5.53
2022-09-12T03:37:11.018Z,5.62
2022-09-12T03:39:41.116Z,5.75
2022-09-12T03:42:12.219Z,5.76
2022-09-12T03:44:40.070Z,5.52
2022-09-12T03:47:11.355Z,5.57
2022-09-12T03:49:41.165Z,5.57
2022-09-12T03:52:09.212Z,5.63
2022-09-12T03:54:39.628Z,5.58
2022-09-12T03:57:11.055Z,5.59
2022-09-12T03:59:38.873Z,5.53
2022-09-12T04:02:06.720Z,5.67
2022-09-12T04:04:38.459Z,5.42
2022-09-12T04:07:06.306Z,5.39
2022-09-12T04:09:34.182Z,5.34
2022-09-12T04:12:06.472Z,5.42
2022-09-12T04:14:35.767Z,5.31
2022-09-12T04:17:03.658Z,5.32
2022-09-12T04:19:33.293Z,5.24
2022-09-12T04:22:01.161Z,5.15
2022-09-12T04:24:28.942Z,5.10
2022-09-12T04:27:04.810Z,5.17
2022-09-12T04:29:36.723Z,5.06
2022-09-12T04:32:06.939Z,5.02
2022-09-12T04:34:37.272Z,5.19
2022-09-12T04:37:05.327Z,5.26
2022-09-12T04:39:37.441Z,5.13
2022-09-12T04:42:05.837Z,5.03
2022-09-12T04:44:33.662Z,5.06
2022-09-12T04:47:06.642Z,5.13
2022-09-12T04:49:35.475Z,5.19
2022-09-12T04:52:03.821Z,5.29
2022-09-12T04:54:36.211Z,5.42
2022-09-12T04:57:04.047Z,5.49
2022-09-12T04:59:34.255Z,5.67
2022-09-12T05:04:47.556Z,5.72
2022-09-12T05:07:17.327Z,5.79
2022-09-12T05:09:45.098Z,5.98
2022-09-12T05:12:14.963Z,6.07
2022-09-12T05:14:44.783Z,6.17
2022-09-12T05:17:13.998Z,6.35
2022-09-12T05:19:43.974Z,6.62
2022-09-12T05:22:13.811Z,6.76
2022-09-12T05:24:47.268Z,6.59
2022-09-12T05:27:22.236Z,6.62
2022-09-12T05:29:52.563Z,7.06
2022-09-12T05:32:21.877Z,7.33
2022-09-12T05:34:51.730Z,7.54
2022-09-12T05:37:19.666Z,7.65
2022-09-12T05:39:47.523Z,7.44
2022-09-12T05:42:17.250Z,7.75
2022-09-12T05:44:47.229Z,7.79
2022-09-12T05:47:17.429Z,7.86
2022-09-12T05:49:50.272Z,8.08
2022-09-12T05:52:20.347Z,8.28
2022-09-12T05:54:49.706Z,8.34
2022-09-12T05:57:19.563Z,8.53
2022-09-12T05:59:49.814Z,8.87
2022-09-12T06:02:19.914Z,9.26
2022-09-12T06:04:51.085Z,9.25
2022-09-12T06:07:19.029Z,9.56
2022-09-12T06:09:48.959Z,9.64
2022-09-12T06:12:18.826Z,9.64
2022-09-12T06:14:46.635Z,9.76
2022-09-12T06:17:18.531Z,9.89
2022-09-12T06:19:46.511Z,9.96
2022-09-12T06:22:15.732Z,10.24
2022-09-12T06:24:47.654Z,10.70
2022-09-12T06:27:15.528Z,11.01
2022-09-12T06:29:43.332Z,11.36
2022-09-12T06:32:15.124Z,11.65
2022-09-12T06:34:43.048Z,11.94
2022-09-12T06:37:11.282Z,12.24
2022-09-12T06:39:44.574Z,12.42
2022-09-12T06:42:13.984Z,12.58
2022-09-12T06:44:44.748Z,12.80
2022-09-12T06:47:14.844Z,13.17
2022-09-12T06:49:42.791Z,13.58
2022-09-12T06:52:12.765Z,14.00
2022-09-12T06:54:44.113Z,14.30
2022-09-12T06:57:11.818Z,14.57
2022-09-12T06:59:42.545Z,14.97
2022-09-12T07:02:12.360Z,15.42
2022-09-12T07:04:40.296Z,15.91
2022-09-12T07:07:08.169Z,16.13
2022-09-12T07:09:36.159Z,15.80
2022-09-12T07:12:06.258Z,16.19
2022-09-12T07:14:36.244Z,16.15
2022-09-12T07:17:06.045Z,16.31
2022-09-12T07:19:36.071Z,16.01
2022-09-12T07:22:09.224Z,16.06
2022-09-12T07:24:40.168Z,16.32
2022-09-12T07:27:10.005Z,16.23
2022-09-12T07:29:39.692Z,16.07
2022-09-12T07:32:09.884Z,16.21
2022-09-12T07:34:39.813Z,16.10
2022-09-12T07:37:09.555Z,16.21
2022-09-12T07:39:37.946Z,16.47
2022-09-12T07:42:07.060Z,16.88
2022-09-12T07:44:38.089Z,16.43
2022-09-12T07:54:47.469Z,16.03
2022-09-12T07:57:15.850Z,16.09
2022-09-12T07:59:53.038Z,16.04
2022-09-12T08:02:21.563Z,16.49
2022-09-12T08:04:51.510Z,17.05
2022-09-12T08:07:21.490Z,17.10
2022-09-12T08:09:51.258Z,17.10
2022-09-12T08:12:20.300Z,17.18
2022-09-12T08:14:51.264Z,17.08
2022-09-12T08:17:19.177Z,17.18
2022-09-12T08:19:47.582Z,17.33
2022-09-12T08:22:23.939Z,17.72
2022-09-12T08:24:51.865Z,17.82
2022-09-12T08:27:21.905Z,17.96
2022-09-12T08:29:52.932Z,18.19
2022-09-12T08:32:20.713Z,17.68
2022-09-12T08:34:50.558Z,17.70
2022-09-12T08:37:20.272Z,17.89
2022-09-12T08:39:48.108Z,17.82
2022-09-12T08:42:29.556Z,18.42
2022-09-12T08:45:10.286Z,18.00
2022-09-12T08:47:44.650Z,18.22
2022-09-12T08:50:17.748Z,17.78
2022-09-12T08:52:55.790Z,18.10
2022-09-12T08:55:34.997Z,18.51
2022-09-12T08:58:16.253Z,17.80
2022-09-12T09:00:52.646Z,18.05
2022-09-12T09:03:38.962Z,18.01
2022-09-12T09:06:18.297Z,18.55
2022-09-12T09:09:03.858Z,18.10
2022-09-12T09:12:01.464Z,17.97
2022-09-12T09:14:50.885Z,17.74
2022-09-12T09:17:28.590Z,17.83
2022-09-12T09:20:06.969Z,18.38
2022-09-12T09:22:42.417Z,18.29
2022-09-12T09:25:22.906Z,18.45
2022-09-12T09:27:58.413Z,18.44
2022-09-12T09:30:30.885Z,18.79
2022-09-12T09:33:04.088Z,18.16
2022-09-12T09:35:46.837Z,18.12
2022-09-12T09:38:24.878Z,18.58
2022-09-12T09:46:21.465Z,18.80
2022-09-12T09:48:52.194Z,18.31
2022-09-12T09:51:36.754Z,18.93
2022-09-12T09:54:14.991Z,19.17
2022-09-12T09:56:50.875Z,18.86
2022-09-12T09:59:22.686Z,18.56
2022-09-12T10:01:57.904Z,18.45
2022-09-12T10:04:29.977Z,18.61
2022-09-12T10:07:02.257Z,18.58
2022-09-12T10:09:35.559Z,18.49
2022-09-12T10:12:24.916Z,18.61
2022-09-12T10:15:02.831Z,18.97
2022-09-12T10:17:45.001Z,18.77
2022-09-12T10:20:35.001Z,19.00
2022-09-12T10:23:11.297Z,18.90
2022-09-12T10:25:40.722Z,19.23
2022-09-12T10:28:43.559Z,19.83
2022-09-12T10:31:17.015Z,20.38
2022-09-12T10:33:55.005Z,20.02
2022-09-12T10:36:27.804Z,19.09
2022-09-12T10:39:04.283Z,19.08
2022-09-12T10:41:39.446Z,18.79
2022-09-12T10:44:18.741Z,18.82
2022-09-12T10:46:48.603Z,18.88
2022-09-12T10:49:26.708Z,19.23
2022-09-12T10:51:57.343Z,19.71
2022-09-12T10:54:29.733Z,19.78
2022-09-12T10:57:30.286Z,19.86
2022-09-12T11:00:10.648Z,19.58
2022-09-12T11:02:50.846Z,19.73
2022-09-12T11:05:39.392Z,19.19
2022-09-12T11:08:43.237Z,19.21
2022-09-12T11:15:10.108Z,18.76
2022-09-12T11:17:51.178Z,18.39
2022-09-12T11:20:43.548Z,18.08
2022-09-12T11:24:09.288Z,18.36
2022-09-12T11:27:04.310Z,18.42
2022-09-12T11:30:27.744Z,18.35
2022-09-12T11:33:30.012Z,18.43
2022-09-12T11:37:01.569Z,18.77
2022-09-12T11:39:43.193Z,18.77
2022-09-12T11:46:21.987Z,18.40
2022-09-12T11:48:56.174Z,18.53
2022-09-12T11:51:54.293Z,18.83
2022-09-12T11:54:28.316Z,19.03
2022-09-12T11:57:29.640Z,20.09
2022-09-12T12:00:23.363Z,19.81
2022-09-12T12:03:16.079Z,19.46
2022-09-12T12:05:53.917Z,19.42
2022-09-12T12:08:28.732Z,19.42
2022-09-12T12:11:00.713Z,18.95
2022-09-12T12:13:35.775Z,18.98
2022-09-12T12:16:17.831Z,19.17
2022-09-12T12:18:54.025Z,19.69
2022-09-12T12:21:43.163Z,19.00
2022-09-12T12:24:16.661Z,18.75
2022-09-12T12:27:02.265Z,18.39
2022-09-12T12:34:51.434Z,19.09
2022-09-12T12:38:27.956Z,19.15
2022-09-12T12:57:40.616Z,19.66
2022-09-12T13:00:33.367Z,19.19
2022-09-12T13:03:23.405Z,19.14
2022-09-12T13:06:04.513Z,19.25
2022-09-12T13:08:49.589Z,19.43
2022-09-12T13:18:52.269Z,20.36
2022-09-12T13:24:54.290Z,20.67
2022-09-12T13:27:26.185Z,20.61
2022-09-12T13:30:11.070Z,19.59
2022-09-12T13:32:39.432Z,20.15
2022-09-12T13:35:19.005Z,20.12
2022-09-12T13:37:54.641Z,19.97
2022-09-12T13:40:35.138Z,19.75
2022-09-12T13:43:15.089Z,19.52
2022-09-12T13:45:46.684Z,19.25
2022-09-12T13:48:19.775Z,18.95
2022-09-12T13:50:54.898Z,18.58
2022-09-12T13:53:30.188Z,18.69
2022-09-12T13:56:00.825Z,18.48
2022-09-12T13:58:33.522Z,18.41
2022-09-12T14:01:07.053Z,18.73
2022-09-12T14:03:59.285Z,19.10
2022-09-12T14:06:29.555Z,18.98
2022-09-12T14:09:02.305Z,19.02
2022-09-12T14:11:39.054Z,18.99
2022-09-12T14:14:22.081Z,18.57
2022-09-12T14:16:56.630Z,18.68
2022-09-12T14:19:29.220Z,18.31
2022-09-12T14:22:01.318Z,18.12
2022-09-12T14:24:33.325Z,17.95
2022-09-12T14:27:04.051Z,17.99
2022-09-12T14:29:34.758Z,17.69
2022-09-12T14:32:08.071Z,17.60
2022-09-12T14:34:38.093Z,17.47
2022-09-12T14:37:17.112Z,17.66
2022-09-12T14:39:56.099Z,17.78
2022-09-12T14:42:34.157Z,17.53
2022-09-12T14:45:15.783Z,17.63
2022-09-12T14:47:56.737Z,17.69
2022-09-12T14:50:33.557Z,17.69
2022-09-12T14:53:10.829Z,17.78
2022-09-12T14:55:54.635Z,17.77
2022-09-12T14:59:36.504Z,17.79
2022-09-12T15:02:57.808Z,18.02
2022-09-12T15:05:32.843Z,17.84
2022-09-12T15:08:19.241Z,18.04
2022-09-12T15:10:55.385Z,18.20
2022-09-12T15:13:42.159Z,18.31
2022-09-12T15:16:34.073Z,18.27
2022-09-12T15:19:04.541Z,18.34
2022-09-12T15:25:14.575Z,18.74
2022-09-12T15:27:44.432Z,18.61
2022-09-12T15:30:14.558Z,18.49
2022-09-12T15:32:46.662Z,18.38
2022-09-12T15:35:18.120Z,18.56
2022-09-12T15:37:47.258Z,18.72
2022-09-12T15:40:16.524Z,18.72
2022-09-12T15:42:45.874Z,18.70
2022-09-12T15:45:23.141Z,18.91
2022-09-12T15:47:52.177Z,18.73
2022-09-12T15:50:23.096Z,18.69
2022-09-12T15:52:54.170Z,18.53
2022-09-12T15:55:26.105Z,18.57
2022-09-12T15:57:57.841Z,18.17
2022-09-12T16:00:26.953Z,18.02
2022-09-12T16:02:56.339Z,17.92
2022-09-12T16:05:29.084Z,17.82
2022-09-12T16:07:57.990Z,17.60
2022-09-12T16:10:29.104Z,17.25
2022-09-12T16:13:00.133Z,17.33
2022-09-12T16:15:28.646Z,17.29
2022-09-12T16:17:57.215Z,17.40
2022-09-12T16:20:28.679Z,17.49
2022-09-12T16:22:56.983Z,17.33
2022-09-12T16:25:26.010Z,17.20
2022-09-12T16:28:00.774Z,17.10
2022-09-12T16:30:29.641Z,16.84
2022-09-12T16:32:58.439Z,16.63
2022-09-12T16:35:27.359Z,16.61
2022-09-12T16:37:56.038Z,16.24
2022-09-12T16:40:26.944Z,16.16
2022-09-12T16:42:58.457Z,15.92
2022-09-12T16:45:30.612Z,16.05
2022-09-12T16:48:01.739Z,16.00
2022-09-12T16:50:30.617Z,15.82
2022-09-12T16:53:01.225Z,15.91
2022-09-12T16:55:32.485Z,15.77
2022-09-12T16:58:01.594Z,15.73
2022-09-12T17:00:37.716Z,15.40
2022-09-12T17:03:07.293Z,15.55
2022-09-12T17:05:41.571Z,15.54
2022-09-12T17:08:13.274Z,15.25
2022-09-12T17:10:45.473Z,14.99
2022-09-12T17:13:14.461Z,14.99
2022-09-12T17:15:50.001Z,14.72
2022-09-12T17:18:20.595Z,14.78
2022-09-12T17:20:52.519Z,14.78
2022-09-12T17:23:21.786Z,14.61
2022-09-12T17:25:54.083Z,14.48
2022-09-12T17:28:23.584Z,14.47
2022-09-12T17:31:02.654Z,14.50
2022-09-12T17:33:33.076Z,14.45
2022-09-12T17:36:03.088Z,14.42
2022-09-12T17:38:37.657Z,14.16
2022-09-12T17:41:13.093Z,14.12
2022-09-12T17:43:43.183Z,14.17
2022-09-12T17:46:15.983Z,14.05
2022-09-12T17:48:46.169Z,13.94
2022-09-12T17:51:18.159Z,13.99
2022-09-12T17:53:49.545Z,13.99
2022-09-12T17:56:19.795Z,13.97
2022-09-12T17:58:50.627Z,13.78
2022-09-12T18:01:40.408Z,13.70
2022-09-12T18:04:11.203Z,13.66
2022-09-12T18:06:48.587Z,13.71
2022-09-12T18:09:22.985Z,13.55
2022-09-12T18:11:57.699Z,13.56
2022-09-12T18:14:28.465Z,13.35
2022-09-12T18:17:05.802Z,13.37
2022-09-12T18:19:36.121Z,13.27
2022-09-12T18:22:12.518Z,13.31
2022-09-12T18:24:44.175Z,13.30
2022-09-12T18:27:19.275Z,13.36
2022-09-12T18:30:10.291Z,13.32
2022-09-12T18:32:47.502Z,13.38
2022-09-12T18:35:17.812Z,13.34
2022-09-12T18:37:53.659Z,13.44
2022-09-12T18:40:24.405Z,13.47
2022-09-12T18:43:00.799Z,13.30
2022-09-12T18:45:32.740Z,13.14
2022-09-12T18:48:10.538Z,13.25
2022-09-12T18:50:41.060Z,13.36
2022-09-12T18:53:15.906Z,13.45
2022-09-12T18:55:49.223Z,13.31
2022-09-12T18:58:24.238Z,13.15
2022-09-12T19:00:55.291Z,13.15
2022-09-12T19:03:29.756Z,13.26
2022-09-12T19:06:02.832Z,13.18
2022-09-12T19:08:39.118Z,12.96
2022-09-12T19:11:10.599Z,12.98
2022-09-12T19:13:48.430Z,12.93
2022-09-12T19:16:29.541Z,12.91
2022-09-12T19:19:07.248Z,12.98
2022-09-12T19:21:45.818Z,12.94
2022-09-12T19:28:36.902Z,12.85
2022-09-12T19:31:51.269Z,12.93
2022-09-12T20:14:25.764Z,12.47
2022-09-12T21:23:49.255Z,12.96
2022-09-12T22:32:32.753Z,12.69
2022-09-12T22:43:09.542Z,12.71
2022-09-12T22:46:31.408Z,12.82
2022-09-12T23:12:34.668Z,12.49
2022-09-12T23:15:19.358Z,12.32
2022-09-12T23:17:59.924Z,12.42
2022-09-12T23:20:44.378Z,12.47
2022-09-12T23:23:30.053Z,12.50
2022-09-12T23:26:15.825Z,12.46
2022-09-12T23:29:00.474Z,12.55
2022-09-12T23:31:40.638Z,12.60
2022-09-12T23:34:22.394Z,12.52
2022-09-12T23:36:59.934Z,12.54
2022-09-12T23:39:43.954Z,12.63
2022-09-12T23:42:16.032Z,12.61
2022-09-12T23:44:53.785Z,12.72
2022-09-12T23:47:37.106Z,12.59
2022-09-12T23:50:24.519Z,12.45
2022-09-12T23:53:12.047Z,12.46
2022-09-12T23:55:55.054Z,12.38
2022-09-12T23:58:33.498Z,12.55
